Terminal Aerodrome Forecast
Issued by NWS Mt. Holly, NJ

Home | Current Version | Previous Version | Text Only | Print | Product List | Glossary On
Versions: 1 2 3 4 5 6 7 8 9 10 11 12 13 14 15 16 17 18 19 20 21
000
FTUS41 KPHI 020522
TAFACY
TAF
KACY 020522Z 0206/0306 25004KT 5SM BR OVC004
      TEMPO 0206/0208 2SM -FZRADZ
     FM021100 28010KT 5SM BR OVC012
     FM021300 30017G27KT P6SM SCT040 BKN200
     FM022300 31008KT P6SM SCT250=

USA.gov is the U.S. government's official web portal to all federal, state and local government web resources and services.